createdAt,value
2016-03-24T00:00:43.360Z,7.32
2016-03-24T00:01:43.347Z,7.29
2016-03-24T00:02:43.333Z,7.29
2016-03-24T00:03:43.321Z,7.32
2016-03-24T00:04:43.324Z,7.29
2016-03-24T00:05:43.311Z,7.28
2016-03-24T00:06:43.282Z,7.33
2016-03-24T00:07:43.269Z,7.29
2016-03-24T00:08:43.256Z,7.29
2016-03-24T00:09:43.244Z,7.27
2016-03-24T00:10:43.230Z,7.28
2016-03-24T00:11:43.202Z,7.32
2016-03-24T00:12:43.188Z,7.33
2016-03-24T00:13:43.176Z,7.21
2016-03-24T00:14:43.148Z,7.35
2016-03-24T00:15:43.151Z,7.33
2016-03-24T00:16:43.137Z,7.33
2016-03-24T00:17:43.124Z,7.22
2016-03-24T00:18:43.096Z,7.29
2016-03-24T00:19:43.098Z,7.33
2016-03-24T00:20:43.101Z,7.27
2016-03-24T00:21:43.056Z,7.36
2016-03-24T00:22:43.060Z,7.37
2016-03-24T00:23:43.031Z,7.27
2016-03-24T00:24:43.018Z,7.32
2016-03-24T00:25:42.989Z,7.25
2016-03-24T00:26:42.992Z,7.28
2016-03-24T00:27:42.979Z,7.28
2016-03-24T00:28:42.951Z,7.29
2016-03-24T00:29:42.938Z,7.33
2016-03-24T00:30:42.925Z,7.35
2016-03-24T00:31:42.912Z,7.29
2016-03-24T00:32:42.900Z,7.33
2016-03-24T00:33:42.870Z,7.33
2016-03-24T00:34:42.872Z,7.22
2016-03-24T00:35:42.844Z,7.32
2016-03-24T00:36:42.847Z,7.29
2016-03-24T00:37:42.819Z,7.32
2016-03-24T00:38:42.837Z,7.35
2016-03-24T00:39:42.793Z,7.29
2016-03-24T00:40:42.779Z,7.28
2016-03-24T00:41:42.767Z,7.33
2016-03-24T00:42:42.754Z,7.32
2016-03-24T00:43:42.726Z,7.28
2016-03-24T00:44:42.712Z,7.29
2016-03-24T00:45:42.716Z,7.25
2016-03-24T00:46:42.687Z,7.32
2016-03-24T00:47:42.690Z,7.29
2016-03-24T00:48:42.660Z,7.29
2016-03-24T00:49:42.648Z,7.29
2016-03-24T00:50:42.635Z,7.29
2016-03-24T00:51:42.622Z,7.29
2016-03-24T00:52:42.609Z,7.24
2016-03-24T00:53:42.580Z,7.37
2016-03-24T00:54:42.583Z,7.25
2016-03-24T00:55:42.554Z,7.21
2016-03-24T00:56:42.542Z,7.25
2016-03-24T00:57:42.528Z,7.25
2016-03-24T00:58:42.516Z,7.28
2016-03-24T00:59:42.487Z,7.28
2016-03-24T01:00:42.474Z,7.21
2016-03-24T01:01:42.461Z,7.25
2016-03-24T01:02:42.447Z,7.21
2016-03-24T01:03:42.451Z,7.19
2016-03-24T01:04:42.422Z,7.14
2016-03-24T01:05:42.410Z,7.1
2016-03-24T01:06:42.396Z,7.15
2016-03-24T01:07:42.383Z,7.15
2016-03-24T01:08:42.370Z,7.1
2016-03-24T01:09:42.342Z,7.15
2016-03-24T01:10:42.329Z,7.17
2016-03-24T01:11:42.316Z,7.17
2016-03-24T01:12:42.304Z,7.09
2016-03-24T01:13:42.291Z,7.22
2016-03-24T01:14:42.262Z,7.12
2016-03-24T01:15:42.249Z,7.07
2016-03-24T01:16:42.251Z,7.1
2016-03-24T01:17:42.223Z,7.1
2016-03-24T01:18:42.209Z,7.14
2016-03-24T01:19:42.212Z,7.21
2016-03-24T01:20:42.200Z,7.14
2016-03-24T01:21:42.170Z,7.15
2016-03-24T01:22:42.158Z,7.19
2016-03-24T01:23:42.145Z,7.14
2016-03-24T01:24:42.132Z,7.18
2016-03-24T01:25:42.103Z,7.14
2016-03-24T01:26:42.092Z,7.19
2016-03-24T01:27:42.078Z,7.07
2016-03-24T01:28:42.065Z,7.12
2016-03-24T01:29:42.052Z,7.1
2016-03-24T01:30:42.039Z,7.12
2016-03-24T01:31:42.025Z,7.15
2016-03-24T01:32:41.998Z,7.17
2016-03-24T01:33:41.985Z,7.14
2016-03-24T01:34:42.003Z,7.15
2016-03-24T01:35:42.005Z,7.15
2016-03-24T01:36:41.946Z,7.12
2016-03-24T01:37:41.949Z,7.12
2016-03-24T01:38:41.920Z,7.18
2016-03-24T01:39:41.907Z,7.1
2016-03-24T01:40:41.894Z,7.06
2016-03-24T01:41:41.882Z,7.09
2016-03-24T01:42:41.852Z,7.18
2016-03-24T01:43:41.840Z,7.14
2016-03-24T01:44:41.810Z,7.17
2016-03-24T01:45:41.813Z,7.15
2016-03-24T01:46:41.801Z,7.12
2016-03-24T01:47:41.788Z,7.03
2016-03-24T01:48:41.775Z,6.97
2016-03-24T01:49:41.762Z,7.04
2016-03-24T01:50:41.748Z,7.07
2016-03-24T01:51:41.737Z,7.18
2016-03-24T01:52:41.707Z,7.12
2016-03-24T01:53:41.710Z,7.09
2016-03-24T01:54:41.698Z,7.12
2016-03-24T01:55:41.670Z,7.09
2016-03-24T01:56:41.656Z,7.06
2016-03-24T01:57:41.643Z,7.14
2016-03-24T01:58:41.630Z,7.09
2016-03-24T01:59:41.601Z,7.15
2016-03-24T02:00:41.604Z,7.12
2016-03-24T02:01:41.575Z,7.19
2016-03-24T02:02:41.563Z,7.06
2016-03-24T02:03:41.502Z,7.19
2016-03-24T02:04:41.536Z,7.09
2016-03-24T02:05:41.508Z,7.1
2016-03-24T02:06:41.495Z,7.1
2016-03-24T02:07:41.482Z,7.06
2016-03-24T02:08:41.469Z,7.07
2016-03-24T02:09:41.457Z,6.99
2016-03-24T02:10:41.444Z,7.09
2016-03-24T02:11:41.430Z,7.07
2016-03-24T02:12:41.402Z,7.07
2016-03-24T02:13:41.388Z,7.06
2016-03-24T02:14:41.377Z,7.09
2016-03-24T02:15:41.348Z,7.07
2016-03-24T02:16:41.350Z,7.07
2016-03-24T02:17:41.337Z,7.07
2016-03-24T02:18:41.559Z,7.09
2016-03-24T02:19:41.312Z,7.03
2016-03-24T02:20:41.299Z,7
2016-03-24T02:21:41.285Z,7.03
2016-03-24T02:22:41.257Z,7.04
2016-03-24T02:23:41.245Z,7.02
2016-03-24T02:24:41.232Z,7
2016-03-24T02:25:41.218Z,6.97
2016-03-24T02:26:41.206Z,7
2016-03-24T02:27:41.192Z,7.02
2016-03-24T02:28:41.179Z,6.99
2016-03-24T02:29:41.151Z,7.02
2016-03-24T02:30:41.138Z,6.94
2016-03-24T02:31:41.125Z,7.03
2016-03-24T02:32:41.127Z,7.03
2016-03-24T02:33:41.177Z,6.97
2016-03-24T02:34:41.102Z,7.04
2016-03-24T02:35:41.073Z,7.07
2016-03-24T02:36:41.060Z,6.94
2016-03-24T02:37:41.047Z,7.07
2016-03-24T02:38:41.035Z,7.06
2016-03-24T02:39:41.038Z,7.09
2016-03-24T02:40:41.009Z,7.06
2016-03-24T02:41:40.980Z,7.07
2016-03-24T02:42:40.967Z,7.04
2016-03-24T02:43:40.955Z,7.14
2016-03-24T02:44:40.926Z,7.12
2016-03-24T02:45:40.913Z,7.07
2016-03-24T02:46:40.915Z,7.1
2016-03-24T02:47:40.887Z,7.14
2016-03-24T02:48:41.062Z,7.02
2016-03-24T02:49:40.861Z,7.02
2016-03-24T02:50:40.848Z,7.03
2016-03-24T02:51:40.835Z,7.09
2016-03-24T02:52:40.823Z,7.1
2016-03-24T02:53:40.810Z,7.09
2016-03-24T02:54:40.796Z,7.04
2016-03-24T02:55:40.768Z,7.1
2016-03-24T02:56:40.754Z,7.12
2016-03-24T02:57:40.742Z,7.07
2016-03-24T02:58:40.729Z,7.15
2016-03-24T02:59:40.716Z,7.12
2016-03-24T03:00:40.703Z,7.07
2016-03-24T03:01:40.674Z,7.12
2016-03-24T03:02:40.661Z,7.15
2016-03-24T03:03:40.977Z,7.03
2016-03-24T03:04:40.651Z,7.03
2016-03-24T03:05:40.622Z,7
2016-03-24T03:06:40.611Z,7.04
2016-03-24T03:07:40.597Z,7
2016-03-24T03:08:40.584Z,7
2016-03-24T03:09:40.555Z,6.97
2016-03-24T03:10:40.542Z,6.97
2016-03-24T03:11:40.544Z,7.03
2016-03-24T03:12:40.517Z,6.94
2016-03-24T03:13:40.504Z,7.02
2016-03-24T03:14:40.491Z,7.03
2016-03-24T03:15:40.477Z,7.02
2016-03-24T03:16:40.465Z,6.94
2016-03-24T03:17:40.435Z,7.02
2016-03-24T03:18:40.783Z,6.97
2016-03-24T03:19:40.410Z,7
2016-03-24T03:20:40.398Z,6.96
2016-03-24T03:21:40.385Z,6.96
2016-03-24T03:22:40.372Z,6.88
2016-03-24T03:23:40.359Z,6.97
2016-03-24T03:24:40.330Z,7
2016-03-24T03:25:40.332Z,7.02
2016-03-24T03:26:40.304Z,7.02
2016-03-24T03:27:40.292Z,6.99
2016-03-24T03:28:40.279Z,7.06
2016-03-24T03:29:40.265Z,7.02
2016-03-24T03:30:40.284Z,7.03
2016-03-24T03:31:40.239Z,6.96
2016-03-24T03:32:40.211Z,6.99
2016-03-24T03:33:40.292Z,7.04
2016-03-24T03:34:40.186Z,7
2016-03-24T03:35:40.173Z,6.97
2016-03-24T03:36:40.159Z,6.99
2016-03-24T03:37:40.147Z,6.99
2016-03-24T03:38:40.133Z,6.99
2016-03-24T03:39:40.120Z,6.94
2016-03-24T03:40:40.091Z,6.97
2016-03-24T03:41:40.080Z,7.07
2016-03-24T03:42:40.066Z,6.94
2016-03-24T03:43:40.053Z,7
2016-03-24T03:44:40.040Z,6.99
2016-03-24T03:45:40.011Z,6.99
2016-03-24T03:46:40.013Z,7.02
2016-03-24T03:47:39.985Z,7.09
2016-03-24T03:48:39.973Z,7.04
2016-03-24T03:49:39.960Z,7.07
2016-03-24T03:50:39.946Z,6.96
2016-03-24T03:51:39.935Z,7.02
2016-03-24T03:52:39.921Z,7
2016-03-24T03:53:39.908Z,7
2016-03-24T03:54:39.879Z,7.02
2016-03-24T03:55:39.867Z,6.97
2016-03-24T03:56:39.853Z,7.04
2016-03-24T03:57:39.841Z,7.02
2016-03-24T03:58:39.828Z,6.97
2016-03-24T03:59:39.815Z,7.02
2016-03-24T04:00:39.817Z,7.04
2016-03-24T04:01:39.789Z,7.02
2016-03-24T04:02:39.776Z,7
2016-03-24T04:03:39.748Z,7
2016-03-24T04:04:39.734Z,6.97
2016-03-24T04:05:39.722Z,7
2016-03-24T04:06:39.698Z,6.96
2016-03-24T04:07:39.685Z,7
2016-03-24T04:08:39.672Z,6.94
2016-03-24T04:09:39.658Z,6.94
2016-03-24T04:10:39.630Z,6.86
2016-03-24T04:11:39.632Z,6.89
2016-03-24T04:12:39.621Z,6.92
2016-03-24T04:13:39.591Z,6.96
2016-03-24T04:14:39.579Z,6.85
2016-03-24T04:15:39.549Z,6.85
2016-03-24T04:16:39.538Z,6.85
2016-03-24T04:17:39.540Z,6.89
2016-03-24T04:18:39.527Z,6.84
2016-03-24T04:19:39.498Z,6.92
2016-03-24T04:20:39.485Z,6.88
2016-03-24T04:21:39.473Z,6.94
2016-03-24T04:22:39.460Z,6.89
2016-03-24T04:23:39.446Z,6.92
2016-03-24T04:24:39.434Z,6.88
2016-03-24T04:25:39.421Z,6.89
2016-03-24T04:26:39.408Z,6.94
2016-03-24T04:27:39.379Z,6.89
2016-03-24T04:28:39.367Z,6.84
2016-03-24T04:29:39.353Z,6.97
2016-03-24T04:30:39.340Z,6.99
2016-03-24T04:31:39.328Z,7.03
2016-03-24T04:32:39.314Z,7
2016-03-24T04:33:39.302Z,7
2016-03-24T04:34:39.272Z,7
2016-03-24T04:35:39.260Z,7
2016-03-24T04:36:39.263Z,6.99
2016-03-24T04:37:39.250Z,6.94
2016-03-24T04:38:39.221Z,7.03
2016-03-24T04:39:39.208Z,6.88
2016-03-24T04:40:39.195Z,7
2016-03-24T04:41:39.198Z,7.02
2016-03-24T04:42:39.169Z,6.97
2016-03-24T04:43:39.157Z,6.97
2016-03-24T04:44:39.127Z,6.91
2016-03-24T04:45:39.115Z,6.84
2016-03-24T04:46:39.102Z,6.88
2016-03-24T04:47:39.090Z,6.89
2016-03-24T04:48:39.060Z,6.89
2016-03-24T04:49:39.048Z,6.88
2016-03-24T04:50:39.050Z,6.92
2016-03-24T04:51:39.038Z,6.86
2016-03-24T04:52:39.009Z,6.88
2016-03-24T04:53:39.012Z,6.79
2016-03-24T04:54:38.983Z,6.79
2016-03-24T04:55:38.970Z,6.75
2016-03-24T04:56:38.956Z,6.81
2016-03-24T04:57:38.929Z,6.79
2016-03-24T04:58:38.915Z,6.82
2016-03-24T04:59:38.903Z,6.82
2016-03-24T05:00:38.889Z,6.85
2016-03-24T05:01:38.878Z,6.86
2016-03-24T05:02:38.864Z,6.89
2016-03-24T05:03:38.836Z,6.86
2016-03-24T05:04:38.853Z,6.86
2016-03-24T05:05:38.809Z,6.91
2016-03-24T05:06:38.811Z,6.97
2016-03-24T05:07:38.784Z,6.94
2016-03-24T05:08:38.786Z,6.96
2016-03-24T05:09:38.758Z,6.88
2016-03-24T05:10:38.744Z,6.84
2016-03-24T05:11:38.732Z,6.91
2016-03-24T05:12:45.000Z,6.84
2016-03-24T05:13:38.784Z,6.85
2016-03-24T05:14:38.677Z,6.92
2016-03-24T05:15:38.665Z,6.85
2016-03-24T05:16:38.652Z,6.89
2016-03-24T05:17:38.685Z,6.82
2016-03-24T05:18:38.626Z,6.86
2016-03-24T05:19:38.597Z,6.96
2016-03-24T05:20:38.584Z,7
2016-03-24T05:21:38.587Z,6.86
2016-03-24T05:22:38.574Z,7.02
2016-03-24T05:23:38.545Z,7.03
2016-03-24T05:24:38.532Z,7
2016-03-24T05:25:38.519Z,7.02
2016-03-24T05:26:38.506Z,7
2016-03-24T05:27:38.493Z,6.96
2016-03-24T05:28:38.465Z,7.07
2016-03-24T05:29:38.452Z,7.02
2016-03-24T05:30:38.439Z,6.97
2016-03-24T05:31:38.411Z,6.97
2016-03-24T05:32:38.398Z,7.07
2016-03-24T05:33:38.400Z,6.96
2016-03-24T05:34:38.372Z,7.03
2016-03-24T05:35:38.374Z,6.99
2016-03-24T05:36:38.347Z,6.97
2016-03-24T05:37:38.333Z,6.99
2016-03-24T05:38:38.320Z,7.09
2016-03-24T05:39:38.307Z,7
2016-03-24T05:40:38.294Z,7.07
2016-03-24T05:41:38.280Z,7.09
2016-03-24T05:42:38.253Z,7.06
2016-03-24T05:43:38.240Z,7.18
2016-03-24T05:44:38.227Z,7.15
2016-03-24T05:45:38.214Z,7.17
2016-03-24T05:46:38.186Z,7.12
2016-03-24T05:47:38.172Z,7.12
2016-03-24T05:48:38.160Z,7.18
2016-03-24T05:49:38.131Z,7.22
2016-03-24T05:50:38.134Z,7.21
2016-03-24T05:51:38.137Z,7.21
2016-03-24T05:52:38.108Z,7.25
2016-03-24T05:53:38.079Z,7.25
2016-03-24T05:54:38.082Z,7.29
2016-03-24T05:55:38.053Z,7.24
2016-03-24T05:56:38.040Z,7.27
2016-03-24T05:57:38.028Z,7.32
2016-03-24T05:58:38.015Z,7.39
2016-03-24T05:59:38.079Z,7.32
2016-03-24T06:00:38.051Z,7.39
2016-03-24T06:01:38.007Z,7.36
2016-03-24T06:02:37.947Z,7.43
2016-03-24T06:03:37.919Z,7.45
2016-03-24T06:04:37.921Z,7.39
2016-03-24T06:05:37.924Z,7.5
2016-03-24T06:06:37.911Z,7.47
2016-03-24T06:07:37.883Z,7.47
2016-03-24T06:08:37.870Z,7.46
2016-03-24T06:09:37.856Z,7.54
2016-03-24T06:10:37.843Z,7.55
2016-03-24T06:11:37.830Z,7.55
2016-03-24T06:12:37.818Z,7.54
2016-03-24T06:13:37.805Z,7.54
2016-03-24T06:14:37.791Z,7.58
2016-03-24T06:15:37.763Z,7.54
2016-03-24T06:16:37.750Z,7.57
2016-03-24T06:17:37.738Z,7.74
2016-03-24T06:18:37.709Z,7.66
2016-03-24T06:19:37.696Z,7.6
2016-03-24T06:20:37.714Z,7.66
2016-03-24T06:21:37.685Z,7.61
2016-03-24T06:22:37.673Z,7.74
2016-03-24T06:23:37.660Z,7.69
2016-03-24T06:24:37.631Z,7.7
2016-03-24T06:25:37.618Z,7.79
2016-03-24T06:26:37.620Z,7.77
2016-03-24T06:27:37.593Z,7.76
2016-03-24T06:28:37.595Z,7.79
2016-03-24T06:29:37.567Z,7.73
2016-03-24T06:30:37.553Z,7.72
2016-03-24T06:31:37.526Z,7.7
2016-03-24T06:32:37.528Z,7.76
2016-03-24T06:33:37.500Z,7.7
2016-03-24T06:34:37.486Z,7.72
2016-03-24T06:35:37.489Z,7.7
2016-03-24T06:36:37.320Z,7.72
2016-03-24T06:37:37.448Z,7.77
2016-03-24T06:38:37.434Z,7.7
2016-03-24T06:39:37.422Z,7.73
2016-03-24T06:40:37.408Z,7.69
2016-03-24T06:41:37.396Z,7.73
2016-03-24T06:42:37.383Z,7.7
2016-03-24T06:43:37.370Z,7.79
2016-03-24T06:44:37.200Z,7.79
2016-03-24T06:45:37.328Z,7.72
2016-03-24T06:46:37.316Z,7.81
2016-03-24T06:47:37.303Z,7.84
2016-03-24T06:48:37.290Z,7.91
2016-03-24T06:49:37.276Z,7.86
2016-03-24T06:50:43.607Z,7.95
2016-03-24T06:51:37.329Z,7.81
2016-03-24T06:52:37.316Z,7.83
2016-03-24T06:53:37.240Z,7.91
2016-03-24T06:54:37.227Z,7.92
2016-03-24T06:55:37.198Z,7.98
2016-03-24T06:56:37.187Z,8.04
2016-03-24T06:57:37.173Z,7.99
2016-03-24T06:58:37.160Z,8.01
2016-03-24T06:59:37.147Z,8.04
2016-03-24T07:00:37.135Z,8.1
2016-03-24T07:01:37.106Z,8.01
2016-03-24T07:02:37.093Z,8.07
2016-03-24T07:03:37.080Z,8.19
2016-03-24T07:04:37.067Z,8.2
2016-03-24T07:05:37.070Z,8.17
2016-03-24T07:06:37.042Z,8.3
2016-03-24T07:07:37.028Z,8.37
2016-03-24T07:08:37.015Z,8.48
2016-03-24T07:09:36.987Z,8.49
2016-03-24T07:10:36.975Z,8.46
2016-03-24T07:11:36.945Z,8.49
2016-03-24T07:12:36.932Z,8.5
2016-03-24T07:13:36.919Z,8.56
2016-03-24T07:14:37.000Z,8.6
2016-03-24T07:15:36.972Z,8.56
2016-03-24T07:16:36.896Z,8.63
2016-03-24T07:17:36.883Z,8.64
2016-03-24T07:18:36.870Z,8.68
2016-03-24T07:19:36.842Z,8.74
2016-03-24T07:20:36.844Z,8.7
2016-03-24T07:21:36.846Z,8.7
2016-03-24T07:22:36.819Z,8.77
2016-03-24T07:23:36.805Z,8.74
2016-03-24T07:24:36.793Z,8.76
2016-03-24T07:25:36.780Z,8.78
2016-03-24T07:26:36.767Z,8.74
2016-03-24T07:27:36.738Z,8.81
2016-03-24T07:28:36.741Z,8.84
2016-03-24T07:29:36.713Z,8.77
2016-03-24T07:30:36.699Z,8.81
2016-03-24T07:31:36.686Z,8.85
2016-03-24T07:32:36.674Z,8.78
2016-03-24T07:33:36.661Z,8.84
2016-03-24T07:34:36.695Z,8.76
2016-03-24T07:35:36.635Z,8.81
2016-03-24T07:36:36.622Z,8.73
2016-03-24T07:37:36.609Z,8.78
2016-03-24T07:38:36.595Z,8.74
2016-03-24T07:39:36.583Z,8.64
2016-03-24T07:40:36.570Z,8.63
2016-03-24T07:41:36.557Z,8.64
2016-03-24T07:42:36.544Z,8.71
2016-03-24T07:43:36.531Z,8.74
2016-03-24T07:44:36.519Z,8.66
2016-03-24T07:45:36.489Z,8.66
2016-03-24T07:46:36.492Z,8.76
2016-03-24T07:47:36.463Z,8.68
2016-03-24T07:48:36.452Z,8.63
2016-03-24T07:49:36.594Z,8.71
2016-03-24T07:50:36.424Z,8.74
2016-03-24T07:51:36.428Z,8.71
2016-03-24T07:52:36.399Z,8.73
2016-03-24T07:53:36.402Z,8.7
2016-03-24T07:54:36.374Z,8.67
2016-03-24T07:55:36.360Z,8.76
2016-03-24T07:56:36.348Z,8.76
2016-03-24T07:57:36.351Z,8.78
2016-03-24T07:58:36.322Z,8.78
2016-03-24T07:59:36.309Z,8.77
2016-03-24T08:00:36.295Z,8.71
2016-03-24T08:01:36.268Z,8.73
2016-03-24T08:02:36.254Z,8.78
2016-03-24T08:03:36.242Z,8.77
2016-03-24T08:04:36.401Z,8.78
2016-03-24T08:05:36.215Z,8.84
2016-03-24T08:06:36.202Z,8.85
2016-03-24T08:07:36.044Z,8.78
2016-03-24T08:08:36.171Z,8.77
2016-03-24T08:09:36.158Z,8.82
2016-03-24T08:10:36.145Z,8.78
2016-03-24T08:11:36.132Z,8.74
2016-03-24T08:12:36.119Z,8.73
2016-03-24T08:13:36.105Z,8.76
2016-03-24T08:14:36.124Z,8.73
2016-03-24T08:15:36.080Z,8.76
2016-03-24T08:16:36.068Z,8.76
2016-03-24T08:17:36.038Z,8.76
2016-03-24T08:18:36.041Z,8.76
2016-03-24T08:19:36.122Z,8.78
2016-03-24T08:20:36.000Z,8.78
2016-03-24T08:21:35.987Z,8.76
2016-03-24T08:22:35.973Z,8.77
2016-03-24T08:23:35.962Z,8.78
2016-03-24T08:24:35.948Z,8.76
2016-03-24T08:25:35.935Z,8.78
2016-03-24T08:26:35.923Z,8.77
2016-03-24T08:27:35.909Z,8.85
2016-03-24T08:28:35.896Z,8.78
2016-03-24T08:29:35.884Z,8.78
2016-03-24T08:30:35.870Z,8.92
2016-03-24T08:31:35.858Z,8.98
2016-03-24T08:32:35.845Z,8.96
2016-03-24T08:33:35.831Z,9
2016-03-24T08:34:35.901Z,8.95
2016-03-24T08:35:35.779Z,8.98
2016-03-24T08:36:35.749Z,8.95
2016-03-24T08:37:35.722Z,8.95
2016-03-24T08:38:35.692Z,8.98
2016-03-24T08:39:35.671Z,9
2016-03-24T08:40:35.653Z,8.92
2016-03-24T08:41:35.633Z,9.06
2016-03-24T08:42:35.616Z,9.01
2016-03-24T08:43:35.596Z,9.01
2016-03-24T08:44:35.565Z,9.08
2016-03-24T08:45:35.565Z,9.1
2016-03-24T08:46:35.535Z,9.17
2016-03-24T08:47:35.537Z,8.98
2016-03-24T08:48:35.521Z,8.92
2016-03-24T08:49:35.632Z,9
2016-03-24T08:50:35.477Z,9.12
2016-03-24T08:51:35.464Z,9.12
2016-03-24T08:52:35.465Z,8.96
2016-03-24T08:53:35.453Z,9
2016-03-24T08:54:35.424Z,9.14
2016-03-24T08:55:35.410Z,9.01
2016-03-24T08:56:35.397Z,9.1
2016-03-24T08:57:35.383Z,9.06
2016-03-24T08:58:35.370Z,9.03
2016-03-24T08:59:35.356Z,9.06
2016-03-24T09:00:35.344Z,9.06
2016-03-24T09:01:35.331Z,9.12
2016-03-24T09:02:35.319Z,9.1
2016-03-24T09:03:35.305Z,9.11
2016-03-24T09:04:35.199Z,9.06
2016-03-24T09:05:35.280Z,9.01
2016-03-24T09:06:35.266Z,9.08
2016-03-24T09:07:35.253Z,9.06
2016-03-24T09:08:35.240Z,9.06
2016-03-24T09:09:35.227Z,9.15
2016-03-24T09:10:35.215Z,9.19
2016-03-24T09:11:35.202Z,9.28
2016-03-24T09:12:35.188Z,9.29
2016-03-24T09:13:35.176Z,9.35
2016-03-24T09:14:35.163Z,9.38
2016-03-24T09:15:35.149Z,9.47
2016-03-24T09:16:35.137Z,9.54
2016-03-24T09:17:35.124Z,9.5
2016-03-24T09:18:35.126Z,9.51
2016-03-24T09:19:35.098Z,9.36
2016-03-24T09:20:35.085Z,9.41
2016-03-24T09:21:35.073Z,9.44
2016-03-24T09:22:35.043Z,9.51
2016-03-24T09:23:35.031Z,9.51
2016-03-24T09:24:35.018Z,9.61
2016-03-24T09:25:35.020Z,9.58
2016-03-24T09:26:35.008Z,9.62
2016-03-24T09:27:34.995Z,9.58
2016-03-24T09:28:34.967Z,9.61
2016-03-24T09:29:34.953Z,9.63
2016-03-24T09:30:34.940Z,9.68
2016-03-24T09:31:34.927Z,9.76
2016-03-24T09:32:34.914Z,9.77
2016-03-24T09:33:34.902Z,9.83
2016-03-24T09:34:34.904Z,9.81
2016-03-24T09:35:34.907Z,9.83
2016-03-24T09:36:34.878Z,9.84
2016-03-24T09:37:34.866Z,9.96
2016-03-24T09:38:34.852Z,10.04
2016-03-24T09:39:34.839Z,9.99
2016-03-24T09:40:34.827Z,9.98
2016-03-24T09:41:34.813Z,10.04
2016-03-24T09:42:34.801Z,10.09
2016-03-24T09:43:34.835Z,10.16
2016-03-24T09:44:34.791Z,10.26
2016-03-24T09:45:34.777Z,10.14
2016-03-24T09:46:34.765Z,10.14
2016-03-24T09:47:34.799Z,10.22
2016-03-24T09:48:34.723Z,10.23
2016-03-24T09:49:34.726Z,10.2
2016-03-24T09:50:34.697Z,10.16
2016-03-24T09:51:34.700Z,10.12
2016-03-24T09:52:34.671Z,10.23
2016-03-24T09:53:34.658Z,10.23
2016-03-24T09:54:34.646Z,10.32
2016-03-24T09:55:34.632Z,10.29
2016-03-24T09:56:34.619Z,10.38
2016-03-24T09:57:34.623Z,10.32
2016-03-24T09:58:34.609Z,10.29
2016-03-24T09:59:34.596Z,10.31
2016-03-24T10:00:34.584Z,10.32
2016-03-24T10:01:34.570Z,10.32
2016-03-24T10:02:34.558Z,10.2
2016-03-24T10:03:34.576Z,10.35
2016-03-24T10:04:34.531Z,10.32
2016-03-24T10:05:34.519Z,10.31
2016-03-24T10:06:34.506Z,10.39
2016-03-24T10:07:34.493Z,10.39
2016-03-24T10:08:34.495Z,10.45
2016-03-24T10:09:34.467Z,10.37
2016-03-24T10:10:34.454Z,10.34
2016-03-24T10:11:34.441Z,10.37
2016-03-24T10:12:34.428Z,10.39
2016-03-24T10:13:34.416Z,10.45
2016-03-24T10:14:34.402Z,10.53
2016-03-24T10:15:34.390Z,10.54
2016-03-24T10:16:34.392Z,10.61
2016-03-24T10:17:34.379Z,10.64
2016-03-24T10:18:34.366Z,10.69
2016-03-24T10:19:34.354Z,10.72
2016-03-24T10:20:34.340Z,10.67
2016-03-24T10:21:34.327Z,10.78
2016-03-24T10:22:34.315Z,10.94
2016-03-24T10:23:34.302Z,10.87
2016-03-24T10:24:34.289Z,10.83
2016-03-24T10:25:34.291Z,10.9
2016-03-24T10:26:34.278Z,11.04
2016-03-24T10:27:34.265Z,11.18
2016-03-24T10:28:34.253Z,11.21
2016-03-24T10:29:34.239Z,11.27
2016-03-24T10:30:34.227Z,11.27
2016-03-24T10:31:34.214Z,11.34
2016-03-24T10:32:34.201Z,11.36
2016-03-24T10:33:34.203Z,11.42
2016-03-24T10:34:34.191Z,11.45
2016-03-24T10:35:34.178Z,11.51
2016-03-24T10:36:34.164Z,11.52
2016-03-24T10:37:34.151Z,11.52
2016-03-24T10:38:34.139Z,11.65
2016-03-24T10:39:34.125Z,11.54
2016-03-24T10:40:34.113Z,11.29
2016-03-24T10:41:34.099Z,11.26
2016-03-24T10:42:34.103Z,11.29
2016-03-24T10:43:34.090Z,11.34
2016-03-24T10:44:34.076Z,11.32
2016-03-24T10:45:34.063Z,11.44
2016-03-24T10:46:34.051Z,11.42
2016-03-24T10:47:34.037Z,11.37
2016-03-24T10:48:34.024Z,11.32
2016-03-24T10:49:34.027Z,11.37
2016-03-24T10:50:33.999Z,11.33
2016-03-24T10:51:34.001Z,11.5
2016-03-24T10:52:33.989Z,11.47
2016-03-24T10:53:33.976Z,11.47
2016-03-24T10:54:33.963Z,11.5
2016-03-24T10:55:33.965Z,11.58
2016-03-24T10:56:33.968Z,11.51
2016-03-24T10:57:33.956Z,11.52
2016-03-24T10:58:33.926Z,11.54
2016-03-24T10:59:33.929Z,11.52
2016-03-24T11:00:33.916Z,11.54
2016-03-24T11:01:33.935Z,11.58
2016-03-24T11:02:33.892Z,11.63
2016-03-24T11:03:33.878Z,11.52
2016-03-24T11:04:33.865Z,11.48
2016-03-24T11:05:33.852Z,11.55
2016-03-24T11:06:33.839Z,11.65
2016-03-24T11:07:33.826Z,11.58
2016-03-24T11:08:33.813Z,11.62
2016-03-24T11:09:33.830Z,11.42
2016-03-24T11:10:33.802Z,11.48
2016-03-24T11:11:33.790Z,11.44
2016-03-24T11:12:33.808Z,11.48
2016-03-24T11:13:33.764Z,11.51
2016-03-24T11:14:33.751Z,11.58
2016-03-24T11:15:33.754Z,11.69
2016-03-24T11:16:33.740Z,11.75
2016-03-24T11:17:33.728Z,11.9
2016-03-24T11:18:33.715Z,11.67
2016-03-24T11:19:33.702Z,11.54
2016-03-24T11:20:33.689Z,11.63
2016-03-24T11:21:33.676Z,11.72
2016-03-24T11:22:33.679Z,11.72
2016-03-24T11:23:33.665Z,11.58
2016-03-24T11:24:33.654Z,11.65
2016-03-24T11:25:33.640Z,11.7
2016-03-24T11:26:33.626Z,11.75
2016-03-24T11:27:33.615Z,11.58
2016-03-24T11:28:33.601Z,11.5
2016-03-24T11:29:33.588Z,11.4
2016-03-24T11:30:33.592Z,11.45
2016-03-24T11:31:33.562Z,11.57
2016-03-24T11:32:33.565Z,11.47
2016-03-24T11:33:33.553Z,11.51
2016-03-24T11:34:33.539Z,11.55
2016-03-24T11:35:33.526Z,11.51
2016-03-24T11:36:33.513Z,11.47
2016-03-24T11:37:33.516Z,11.63
2016-03-24T11:38:33.503Z,11.62
2016-03-24T11:39:33.491Z,11.57
2016-03-24T11:40:33.493Z,11.66
2016-03-24T11:41:33.480Z,11.7
2016-03-24T11:42:33.467Z,11.75
2016-03-24T11:43:33.438Z,11.7
2016-03-24T11:44:33.441Z,11.66
2016-03-24T11:45:33.428Z,11.57
2016-03-24T11:46:33.415Z,11.5
2016-03-24T11:47:33.403Z,11.45
2016-03-24T11:48:33.405Z,11.39
2016-03-24T11:49:33.392Z,11.48
2016-03-24T11:50:33.379Z,11.54
2016-03-24T11:51:33.365Z,11.62
2016-03-24T11:52:33.353Z,11.66
2016-03-24T11:53:33.340Z,11.75
2016-03-24T11:54:33.327Z,11.83
2016-03-24T11:55:33.315Z,11.83
2016-03-24T11:56:33.301Z,11.9
2016-03-24T11:57:33.289Z,11.87
2016-03-24T11:58:33.292Z,11.96
2016-03-24T11:59:33.278Z,11.9
2016-03-24T12:00:33.265Z,12.01
2016-03-24T12:01:33.253Z,12
2016-03-24T12:02:33.240Z,12.04
2016-03-24T12:03:33.226Z,11.9
2016-03-24T12:04:33.214Z,11.83
2016-03-24T12:05:33.200Z,11.8
2016-03-24T12:06:33.188Z,11.81
2016-03-24T12:07:33.191Z,11.84
2016-03-24T12:08:33.177Z,11.66
2016-03-24T12:09:33.165Z,11.75
2016-03-24T12:10:33.152Z,11.62
2016-03-24T12:11:33.154Z,11.77
2016-03-24T12:12:33.141Z,11.65
2016-03-24T12:13:33.128Z,11.76
2016-03-24T12:14:33.116Z,11.84
2016-03-24T12:15:33.118Z,11.84
2016-03-24T12:16:33.091Z,11.77
2016-03-24T12:17:33.077Z,11.67
2016-03-24T12:18:33.095Z,11.58
2016-03-24T12:19:33.066Z,11.59
2016-03-24T12:20:33.053Z,11.4
2016-03-24T12:21:33.056Z,11.67
2016-03-24T12:22:33.027Z,11.66
2016-03-24T12:23:33.014Z,11.75
2016-03-24T12:24:33.033Z,11.8
2016-03-24T12:25:32.989Z,11.65
2016-03-24T12:26:32.992Z,11.81
2016-03-24T12:27:32.978Z,11.77
2016-03-24T12:28:32.966Z,11.73
2016-03-24T12:29:32.953Z,11.63
2016-03-24T12:30:32.956Z,11.63
2016-03-24T12:31:32.926Z,11.59
2016-03-24T12:32:32.914Z,11.75
2016-03-24T12:33:32.917Z,11.8
2016-03-24T12:34:32.888Z,11.9
2016-03-24T12:35:32.906Z,11.96
2016-03-24T12:36:32.878Z,11.91
2016-03-24T12:37:32.881Z,11.95
2016-03-24T12:38:32.852Z,11.96
2016-03-24T12:39:32.839Z,12.09
2016-03-24T12:40:32.858Z,12.09
2016-03-24T12:41:32.828Z,12.1
2016-03-24T12:42:32.831Z,12.1
2016-03-24T12:43:32.802Z,12.13
2016-03-24T12:44:32.822Z,12.1
2016-03-24T12:45:32.793Z,12.11
2016-03-24T12:46:32.779Z,12.13
2016-03-24T12:47:32.766Z,11.95
2016-03-24T12:48:32.754Z,11.95
2016-03-24T12:49:32.741Z,12.03
2016-03-24T12:50:32.727Z,12.11
2016-03-24T12:51:32.715Z,12.13
2016-03-24T12:52:32.718Z,12.25
2016-03-24T12:53:32.705Z,12.29
2016-03-24T12:54:32.692Z,12.35
2016-03-24T12:55:32.679Z,12.39
2016-03-24T12:56:32.681Z,12.37
2016-03-24T12:57:32.669Z,12.42
2016-03-24T12:58:32.656Z,12.32
2016-03-24T12:59:32.642Z,12.47
2016-03-24T13:00:32.629Z,12.4
2016-03-24T13:01:32.617Z,12.42
2016-03-24T13:02:32.604Z,12.28
2016-03-24T13:03:32.606Z,12.31
2016-03-24T13:04:32.579Z,12.14
2016-03-24T13:05:32.581Z,12.04
2016-03-24T13:06:32.584Z,11.9
2016-03-24T13:07:32.555Z,11.9
2016-03-24T13:08:32.541Z,11.87
2016-03-24T13:09:32.373Z,11.84
2016-03-24T13:10:32.516Z,11.75
2016-03-24T13:11:32.503Z,11.67
2016-03-24T13:12:32.521Z,11.59
2016-03-24T13:13:32.494Z,11.65
2016-03-24T13:14:32.480Z,11.55
2016-03-24T13:15:32.467Z,11.47
2016-03-24T13:16:32.454Z,11.48